createdAt,value
2018-02-17T00:00:19.964Z,4.10
2018-02-17T00:02:48.381Z,4.00
2018-02-17T00:05:15.977Z,4.00
2018-02-17T00:07:44.333Z,4.10
2018-02-17T00:10:11.978Z,4.00
2018-02-17T00:12:39.588Z,4.00
2018-02-17T00:15:07.198Z,4.10
2018-02-17T00:17:35.593Z,4.00
2018-02-17T00:20:03.193Z,4.00
2018-02-17T00:22:30.817Z,4.00
2018-02-17T00:24:58.412Z,4.00
2018-02-17T00:27:26.041Z,4.00
2018-02-17T00:29:54.421Z,4.00
2018-02-17T00:32:22.053Z,4.00
2018-02-17T00:34:50.417Z,4.00
2018-02-17T00:37:18.810Z,4.00
2018-02-17T00:39:46.413Z,3.90
2018-02-17T00:42:14.044Z,4.00
2018-02-17T00:44:41.644Z,4.00
2018-02-17T00:47:09.338Z,4.00
2018-02-17T00:49:36.936Z,3.90
2018-02-17T00:52:05.345Z,3.90
2018-02-17T00:54:32.944Z,3.90
2018-02-17T00:57:01.316Z,3.90
2018-02-17T00:59:28.950Z,3.90
2018-02-17T01:01:57.308Z,3.90
2018-02-17T01:04:24.935Z,3.90
2018-02-17T01:06:52.545Z,3.90
2018-02-17T01:09:20.164Z,3.90
2018-02-17T01:11:48.532Z,3.80
2018-02-17T01:14:16.188Z,3.80
2018-02-17T01:16:43.798Z,3.80
2018-02-17T01:19:11.405Z,3.80
2018-02-17T01:21:39.025Z,3.80
2018-02-17T01:24:07.396Z,3.80
2018-02-17T01:26:35.025Z,3.80
2018-02-17T01:29:03.396Z,3.80
2018-02-17T01:31:31.793Z,3.90
2018-02-17T01:33:59.433Z,3.90
2018-02-17T01:36:27.044Z,3.90
2018-02-17T01:38:54.645Z,3.90
2018-02-17T01:41:22.265Z,3.90
2018-02-17T01:43:49.865Z,4.00
2018-02-17T01:46:19.229Z,4.00
2018-02-17T01:48:46.865Z,3.90
2018-02-17T01:51:14.464Z,3.90
2018-02-17T01:53:42.860Z,3.90
2018-02-17T01:56:10.453Z,3.80
2018-02-17T01:58:38.064Z,3.80
2018-02-17T02:01:05.717Z,3.80
2018-02-17T02:03:33.313Z,3.80
2018-02-17T02:06:00.920Z,3.80
2018-02-17T02:08:28.549Z,3.80
2018-02-17T02:10:56.179Z,3.80
2018-02-17T02:13:23.777Z,3.80
2018-02-17T02:15:51.377Z,3.70
2018-02-17T02:18:19.000Z,3.70
2018-02-17T02:20:47.384Z,3.70
2018-02-17T02:23:15.021Z,3.70
2018-02-17T02:25:42.653Z,3.70
2018-02-17T02:28:11.061Z,3.70
2018-02-17T02:30:38.656Z,3.60
2018-02-17T02:33:06.252Z,3.70
2018-02-17T02:35:33.884Z,3.70
2018-02-17T02:38:01.531Z,3.70
2018-02-17T02:40:29.123Z,3.70
2018-02-17T02:42:56.743Z,3.70
2018-02-17T02:45:24.372Z,3.60
2018-02-17T02:47:51.973Z,3.60
2018-02-17T02:50:19.598Z,3.60
2018-02-17T02:52:47.201Z,3.60
2018-02-17T02:55:14.900Z,3.60
2018-02-17T02:57:42.494Z,3.70
2018-02-17T03:00:10.122Z,3.70
2018-02-17T03:02:38.488Z,3.60
2018-02-17T03:05:06.889Z,3.60
2018-02-17T03:07:34.565Z,3.60
2018-02-17T03:10:02.160Z,3.70
2018-02-17T03:12:29.780Z,3.70
2018-02-17T03:14:57.374Z,3.70
2018-02-17T03:17:24.988Z,3.70
2018-02-17T03:19:53.344Z,3.70
2018-02-17T03:22:21.705Z,3.70
2018-02-17T03:24:50.113Z,3.70
2018-02-17T03:27:17.708Z,3.70
2018-02-17T03:29:45.316Z,3.80
2018-02-17T03:32:12.940Z,3.70
2018-02-17T03:34:40.555Z,3.70
2018-02-17T03:37:08.949Z,3.70
2018-02-17T03:39:36.548Z,3.70
2018-02-17T03:42:04.172Z,3.70
2018-02-17T03:44:31.768Z,3.70
2018-02-17T03:47:00.132Z,3.70
2018-02-17T03:49:28.520Z,3.70
2018-02-17T03:51:56.121Z,3.60
2018-02-17T03:54:23.744Z,3.70
2018-02-17T03:56:51.378Z,3.60
2018-02-17T03:59:18.969Z,3.60
2018-02-17T04:01:47.328Z,3.70
2018-02-17T04:04:15.717Z,3.60
2018-02-17T04:06:43.309Z,3.60
2018-02-17T04:09:10.961Z,3.70
2018-02-17T04:11:38.596Z,3.70
2018-02-17T04:14:06.184Z,3.70
2018-02-17T04:16:34.546Z,3.70
2018-02-17T04:19:02.929Z,3.60
2018-02-17T04:21:30.537Z,3.50
2018-02-17T04:23:58.157Z,3.60
2018-02-17T04:26:25.748Z,3.60
2018-02-17T04:28:54.159Z,3.60
2018-02-17T04:31:21.755Z,3.60
2018-02-17T04:33:50.148Z,3.60
2018-02-17T04:36:17.744Z,3.60
2018-02-17T04:38:45.337Z,3.60
2018-02-17T04:44:14.064Z,3.50
2018-02-17T04:46:42.303Z,3.50
2018-02-17T04:49:11.835Z,3.50
2018-02-17T04:54:45.332Z,3.40
2018-02-17T04:57:30.738Z,3.40
2018-02-17T05:00:04.097Z,3.40
2018-02-17T05:02:32.513Z,3.40
2018-02-17T05:05:01.696Z,3.40
2018-02-17T05:07:30.658Z,3.40
2018-02-17T05:09:58.279Z,3.40
2018-02-17T05:12:25.868Z,3.40
2018-02-17T05:14:56.223Z,3.40
2018-02-17T05:17:29.524Z,3.30
2018-02-17T05:20:03.875Z,3.40
2018-02-17T05:22:31.472Z,3.40
2018-02-17T05:25:17.766Z,3.40
2018-02-17T05:28:03.209Z,3.50
2018-02-17T05:30:41.695Z,3.50
2018-02-17T05:33:12.957Z,3.50
2018-02-17T05:38:46.848Z,3.40
2018-02-17T05:41:14.478Z,3.50
2018-02-17T05:43:42.125Z,3.50
2018-02-17T05:46:17.284Z,3.50
2018-02-17T05:48:48.340Z,3.40
2018-02-17T05:51:15.944Z,3.40
2018-02-17T05:53:43.570Z,3.40
2018-02-17T05:56:11.161Z,3.40
2018-02-17T05:58:38.785Z,3.40
2018-02-17T06:01:06.400Z,3.40
2018-02-17T06:03:34.032Z,3.40
2018-02-17T06:06:01.628Z,3.40
2018-02-17T06:08:29.985Z,3.40
2018-02-17T06:10:57.613Z,3.40
2018-02-17T06:13:25.209Z,3.50
2018-02-17T06:15:52.805Z,3.50
2018-02-17T06:18:20.425Z,3.50
2018-02-17T06:20:48.020Z,3.50
2018-02-17T06:23:16.447Z,3.50
2018-02-17T06:25:44.065Z,3.40
2018-02-17T06:28:11.715Z,3.50
2018-02-17T06:30:39.319Z,3.40
2018-02-17T06:33:07.673Z,3.50
2018-02-17T06:35:35.289Z,3.40
2018-02-17T06:38:02.886Z,3.50
2018-02-17T06:40:30.519Z,3.50
2018-02-17T06:42:58.889Z,3.40
2018-02-17T06:45:27.244Z,3.50
2018-02-17T06:47:55.633Z,3.40
2018-02-17T06:50:23.256Z,3.40
2018-02-17T06:52:51.619Z,3.30
2018-02-17T06:55:19.984Z,3.30
2018-02-17T06:57:48.363Z,3.30
2018-02-17T07:00:15.968Z,3.30
2018-02-17T07:02:43.605Z,3.30
2018-02-17T07:05:11.191Z,3.30
2018-02-17T07:07:39.589Z,3.20
2018-02-17T07:10:07.208Z,3.20
2018-02-17T07:12:34.824Z,3.30
2018-02-17T07:15:02.456Z,3.30
2018-02-17T07:17:30.104Z,3.30
2018-02-17T07:19:57.704Z,3.30
2018-02-17T07:22:25.328Z,3.30
2018-02-17T07:24:53.696Z,3.30
2018-02-17T07:27:22.128Z,3.20
2018-02-17T07:29:49.724Z,3.20
2018-02-17T07:32:17.354Z,3.30
2018-02-17T07:34:44.957Z,3.30
2018-02-17T07:37:12.581Z,3.30
2018-02-17T07:39:40.196Z,3.30
2018-02-17T07:42:08.606Z,3.30
2018-02-17T07:44:36.204Z,3.30
2018-02-17T07:47:04.729Z,3.30
2018-02-17T07:49:32.324Z,3.30
2018-02-17T07:51:59.964Z,3.30
2018-02-17T07:54:27.560Z,3.30
2018-02-17T07:56:55.155Z,3.40
2018-02-17T07:59:22.775Z,3.50
2018-02-17T08:01:50.363Z,3.60
2018-02-17T08:04:17.985Z,3.60
2018-02-17T08:06:46.344Z,3.80
2018-02-17T08:09:14.716Z,3.80
2018-02-17T08:11:42.361Z,3.80
2018-02-17T08:14:10.009Z,3.80
2018-02-17T08:16:37.637Z,3.90
2018-02-17T08:19:11.018Z,3.90
2018-02-17T08:21:38.952Z,3.90
2018-02-17T08:24:06.581Z,3.90
2018-02-17T08:26:34.209Z,3.90
2018-02-17T08:29:01.853Z,3.80
2018-02-17T08:31:29.470Z,3.80
2018-02-17T08:33:57.118Z,3.70
2018-02-17T08:36:24.714Z,3.70
2018-02-17T08:38:52.381Z,3.60
2018-02-17T08:41:20.787Z,3.60
2018-02-17T08:43:48.413Z,3.60
2018-02-17T08:46:16.056Z,3.60
2018-02-17T08:48:44.466Z,3.70
2018-02-17T08:51:12.069Z,3.70
2018-02-17T08:53:39.706Z,3.90
2018-02-17T08:56:08.064Z,4.00
2018-02-17T08:58:36.449Z,4.00
2018-02-17T09:01:04.144Z,4.00
2018-02-17T09:03:31.757Z,4.10
2018-02-17T09:05:59.446Z,4.10
2018-02-17T09:08:27.044Z,4.10
2018-02-17T09:10:54.677Z,4.10
2018-02-17T09:13:22.282Z,4.10
2018-02-17T09:15:49.919Z,4.00
2018-02-17T09:18:17.557Z,4.00
2018-02-17T09:20:45.156Z,4.00
2018-02-17T09:23:13.578Z,4.00
2018-02-17T09:25:41.180Z,3.90
2018-02-17T09:28:08.784Z,4.00
2018-02-17T09:30:36.436Z,4.10
2018-02-17T09:33:04.810Z,4.10
2018-02-17T09:35:33.204Z,4.20
2018-02-17T09:38:00.940Z,4.10
2018-02-17T09:40:28.564Z,4.20
2018-02-17T09:42:56.925Z,4.30
2018-02-17T09:45:24.564Z,4.20
2018-02-17T09:47:52.164Z,4.30
2018-02-17T09:50:19.768Z,4.30
2018-02-17T09:52:48.160Z,4.30
2018-02-17T09:55:15.958Z,4.30
2018-02-17T09:57:43.604Z,4.30
2018-02-17T10:00:11.204Z,4.40
2018-02-17T10:02:38.804Z,4.40
2018-02-17T10:05:06.432Z,4.40
2018-02-17T10:07:34.027Z,4.40
2018-02-17T10:10:02.422Z,4.50
2018-02-17T10:12:30.025Z,4.40
2018-02-17T10:14:58.416Z,4.50
2018-02-17T10:17:26.028Z,4.50
2018-02-17T10:19:53.677Z,4.50
2018-02-17T10:22:22.046Z,4.50
2018-02-17T10:24:50.420Z,4.60
2018-02-17T10:27:18.814Z,4.60
2018-02-17T10:29:46.417Z,4.60
2018-02-17T10:32:14.062Z,4.60
2018-02-17T10:34:41.664Z,4.60
2018-02-17T10:37:09.264Z,4.60
2018-02-17T10:39:37.676Z,4.60
2018-02-17T10:42:05.284Z,4.60
2018-02-17T10:44:33.652Z,4.60
2018-02-17T10:47:01.285Z,4.60
2018-02-17T10:49:29.677Z,4.60
2018-02-17T10:51:57.304Z,4.60
2018-02-17T10:54:25.796Z,4.50
2018-02-17T10:56:53.425Z,4.50
2018-02-17T10:59:21.033Z,4.50
2018-02-17T11:01:48.671Z,4.50
2018-02-17T11:04:16.280Z,4.60
2018-02-17T11:06:43.888Z,4.60
2018-02-17T11:09:11.520Z,4.60
2018-02-17T11:11:39.125Z,4.60
2018-02-17T11:14:06.748Z,4.60
2018-02-17T11:16:34.350Z,4.60
2018-02-17T11:19:01.974Z,4.60
2018-02-17T11:21:29.572Z,4.60
2018-02-17T11:29:51.884Z,4.70
2018-02-17T11:32:19.485Z,4.60
2018-02-17T11:34:47.081Z,4.70
2018-02-17T11:40:46.736Z,4.70
2018-02-17T11:46:26.651Z,4.70
2018-02-17T11:48:54.297Z,4.80
2018-02-17T11:51:21.895Z,4.80
2018-02-17T11:53:49.517Z,4.70
2018-02-17T11:56:17.887Z,4.70
2018-02-17T11:58:46.301Z,4.70
2018-02-17T12:01:14.063Z,4.70
2018-02-17T12:03:41.664Z,4.80
2018-02-17T12:06:09.284Z,4.80
2018-02-17T12:08:37.670Z,4.90
2018-02-17T12:11:05.304Z,4.80
2018-02-17T12:13:32.911Z,4.90
2018-02-17T12:16:00.512Z,4.90
2018-02-17T12:18:28.133Z,4.90
2018-02-17T12:20:56.500Z,4.90
2018-02-17T12:23:24.898Z,4.80
2018-02-17T12:25:52.496Z,4.80
2018-02-17T12:28:20.137Z,4.70
2018-02-17T12:30:47.736Z,4.80
2018-02-17T12:33:15.364Z,4.80
2018-02-17T12:35:42.981Z,4.80
2018-02-17T12:38:10.605Z,4.80
2018-02-17T12:40:38.229Z,4.80
2018-02-17T12:43:05.832Z,4.80
2018-02-17T12:45:34.232Z,4.80
2018-02-17T12:48:02.953Z,4.70
2018-02-17T12:50:30.616Z,4.70
2018-02-17T12:52:58.985Z,4.70
2018-02-17T12:55:27.340Z,4.70
2018-02-17T12:57:55.040Z,4.60
2018-02-17T13:00:22.652Z,4.60
2018-02-17T13:02:51.013Z,4.60
2018-02-17T13:05:19.443Z,4.60
2018-02-17T13:07:47.065Z,4.60
2018-02-17T13:10:14.689Z,4.60
2018-02-17T13:13:14.383Z,4.60
2018-02-17T13:21:39.263Z,4.50
2018-02-17T13:24:07.886Z,4.50
2018-02-17T13:29:47.735Z,4.60
2018-02-17T13:35:43.341Z,4.60
2018-02-17T13:41:42.543Z,4.60
2018-02-17T13:44:10.186Z,4.60
2018-02-17T13:46:37.789Z,4.60
2018-02-17T13:49:05.536Z,4.60
2018-02-17T13:51:33.128Z,4.60
2018-02-17T13:54:00.735Z,4.60
2018-02-17T13:56:28.352Z,4.60
2018-02-17T13:58:55.956Z,4.60
2018-02-17T14:01:24.344Z,4.60
2018-02-17T14:03:51.936Z,4.50
2018-02-17T14:06:19.557Z,4.60
2018-02-17T14:08:47.199Z,4.50
2018-02-17T14:11:14.804Z,4.50
2018-02-17T14:13:43.168Z,4.60
2018-02-17T14:16:11.580Z,4.60
2018-02-17T14:18:39.350Z,4.50
2018-02-17T14:21:06.944Z,4.50
2018-02-17T14:23:34.548Z,4.60
2018-02-17T14:26:02.171Z,4.60
2018-02-17T14:28:29.772Z,4.60
2018-02-17T14:30:57.451Z,4.60
2018-02-17T14:33:25.046Z,4.60
2018-02-17T14:35:53.436Z,4.50
2018-02-17T14:38:21.033Z,4.50
2018-02-17T14:40:48.668Z,4.60
2018-02-17T14:43:16.291Z,4.60
2018-02-17T14:45:43.929Z,4.60
2018-02-17T14:48:11.528Z,4.60
2018-02-17T14:50:39.141Z,4.60
2018-02-17T14:53:06.764Z,4.60
2018-02-17T14:55:34.411Z,4.60
2018-02-17T14:58:02.781Z,4.60
2018-02-17T15:00:30.378Z,4.60
2018-02-17T15:02:58.128Z,4.60
2018-02-17T15:05:25.733Z,4.60
2018-02-17T15:07:53.329Z,4.60
2018-02-17T15:10:21.725Z,4.60
2018-02-17T15:12:49.432Z,4.60
2018-02-17T15:15:17.177Z,4.70
2018-02-17T15:17:44.876Z,4.70
2018-02-17T15:20:12.535Z,4.60
2018-02-17T15:22:40.216Z,4.70
2018-02-17T15:25:07.879Z,4.70
2018-02-17T15:27:35.501Z,4.70
2018-02-17T15:30:03.270Z,4.70
2018-02-17T15:32:30.893Z,4.70
2018-02-17T15:34:58.496Z,4.70
2018-02-17T15:37:26.121Z,4.70
2018-02-17T15:39:54.497Z,4.70
2018-02-17T15:42:22.123Z,4.70
2018-02-17T15:44:49.745Z,4.70
2018-02-17T15:47:17.336Z,4.80
2018-02-17T15:49:45.721Z,4.80
2018-02-17T15:52:13.327Z,4.80
2018-02-17T15:54:40.972Z,4.90
2018-02-17T15:57:08.576Z,4.80
2018-02-17T15:59:36.177Z,4.80
2018-02-17T16:02:04.572Z,5.00
2018-02-17T16:04:32.184Z,5.00
2018-02-17T16:07:00.589Z,5.10
2018-02-17T16:09:28.195Z,5.10
2018-02-17T16:11:56.565Z,5.20
2018-02-17T16:14:24.968Z,5.20
2018-02-17T16:16:52.560Z,5.10
2018-02-17T16:19:20.864Z,5.10
2018-02-17T16:21:48.533Z,5.10
2018-02-17T16:24:16.218Z,5.10
2018-02-17T16:26:43.808Z,5.00
2018-02-17T16:29:11.444Z,5.00
2018-02-17T16:31:39.044Z,5.00
2018-02-17T16:34:06.656Z,4.90
2018-02-17T16:36:34.344Z,5.00
2018-02-17T16:39:01.938Z,5.00
2018-02-17T16:41:29.553Z,5.00
2018-02-17T16:43:57.937Z,4.90
2018-02-17T16:46:25.535Z,4.90
2018-02-17T16:48:53.153Z,5.00
2018-02-17T16:51:20.757Z,4.90
2018-02-17T16:53:48.377Z,4.90
2018-02-17T16:56:16.136Z,4.90
2018-02-17T16:58:43.810Z,4.90
2018-02-17T17:01:12.219Z,4.80
2018-02-17T17:03:39.826Z,4.80
2018-02-17T17:06:08.220Z,4.80
2018-02-17T17:08:35.824Z,4.80
2018-02-17T17:11:03.450Z,4.70
2018-02-17T17:13:31.196Z,4.70
2018-02-17T17:15:58.793Z,4.80
2018-02-17T17:18:26.413Z,4.80
2018-02-17T17:20:54.782Z,4.70
2018-02-17T17:23:23.191Z,4.70
2018-02-17T17:25:50.788Z,4.70
2018-02-17T17:28:18.511Z,4.80
2018-02-17T17:30:46.128Z,4.90
2018-02-17T17:33:13.725Z,5.00
2018-02-17T17:35:42.593Z,5.10
2018-02-17T17:38:10.960Z,5.10
2018-02-17T17:40:38.581Z,5.10
2018-02-17T17:43:06.172Z,5.20
2018-02-17T17:45:34.561Z,5.20
2018-02-17T17:48:02.197Z,5.20
2018-02-17T17:50:29.841Z,5.20
2018-02-17T17:52:57.548Z,5.20
2018-02-17T17:55:25.144Z,5.20
2018-02-17T17:57:52.830Z,5.20
2018-02-17T18:00:20.429Z,5.20
2018-02-17T18:02:48.049Z,5.20
2018-02-17T18:05:16.414Z,5.20
2018-02-17T18:07:44.824Z,5.20
2018-02-17T18:10:12.503Z,5.10
2018-02-17T18:12:40.099Z,5.10
2018-02-17T18:15:07.724Z,5.10
2018-02-17T18:17:36.163Z,5.10
2018-02-17T18:20:03.787Z,5.10
2018-02-17T18:22:31.380Z,5.20
2018-02-17T18:24:59.776Z,5.20
2018-02-17T18:27:27.377Z,5.20
2018-02-17T18:29:55.006Z,5.20
2018-02-17T18:32:22.736Z,5.20
2018-02-17T18:34:50.459Z,5.20
2018-02-17T18:37:18.121Z,5.20
2018-02-17T18:39:45.769Z,5.20
2018-02-17T18:42:13.452Z,5.20
2018-02-17T18:44:41.097Z,5.20
2018-02-17T18:47:08.692Z,5.20
2018-02-17T18:49:36.356Z,5.10
2018-02-17T18:52:03.960Z,5.10
2018-02-17T18:54:32.348Z,5.10
2018-02-17T18:56:59.948Z,5.00
2018-02-17T18:59:27.595Z,5.00
2018-02-17T19:01:55.264Z,5.00
2018-02-17T19:04:23.633Z,5.00
2018-02-17T19:06:52.353Z,5.00
2018-02-17T19:09:20.323Z,5.00
2018-02-17T19:11:48.048Z,5.00
2018-02-17T19:14:15.663Z,5.00
2018-02-17T19:16:44.639Z,5.00
2018-02-17T19:19:13.661Z,5.00
2018-02-17T19:21:41.291Z,5.00
2018-02-17T19:24:08.981Z,5.10
2018-02-17T19:26:36.576Z,5.00
2018-02-17T19:29:04.207Z,5.00
2018-02-17T19:31:32.608Z,5.00
2018-02-17T19:34:00.204Z,5.00
2018-02-17T19:36:27.857Z,5.00
2018-02-17T19:38:56.316Z,5.00
2018-02-17T19:41:24.709Z,5.00
2018-02-17T19:43:52.341Z,5.00
2018-02-17T19:46:20.750Z,5.10
2018-02-17T19:48:48.418Z,5.00
2018-02-17T19:51:16.015Z,5.10
2018-02-17T19:53:43.640Z,5.00
2018-02-17T19:56:12.004Z,5.00
2018-02-17T19:58:40.393Z,5.10
2018-02-17T20:01:08.020Z,5.00
2018-02-17T20:03:36.389Z,5.10
2018-02-17T20:06:04.785Z,5.10
2018-02-17T20:08:32.384Z,5.10
2018-02-17T20:11:00.008Z,5.10
2018-02-17T20:13:27.772Z,5.10
2018-02-17T20:15:55.518Z,5.10
2018-02-17T20:18:23.169Z,5.10
2018-02-17T20:20:50.804Z,5.00
2018-02-17T20:23:18.429Z,5.00
2018-02-17T20:25:46.068Z,5.00
2018-02-17T20:28:13.853Z,5.00
2018-02-17T20:30:41.605Z,5.00
2018-02-17T20:33:09.220Z,5.00
2018-02-17T20:35:36.885Z,5.10
2018-02-17T20:38:04.587Z,5.10
2018-02-17T20:40:32.224Z,5.10
2018-02-17T20:43:00.589Z,5.00
2018-02-17T20:45:32.763Z,5.00
2018-02-17T20:48:00.802Z,5.00
2018-02-17T20:50:33.157Z,5.00
2018-02-17T20:53:01.282Z,5.00
2018-02-17T20:55:29.850Z,5.00
2018-02-17T20:57:57.490Z,5.00
2018-02-17T21:00:25.149Z,5.00
2018-02-17T21:02:52.953Z,5.00
2018-02-17T21:05:21.284Z,5.00
2018-02-17T21:07:49.745Z,5.00
2018-02-17T21:10:18.288Z,5.00
2018-02-17T21:12:45.896Z,4.90
2018-02-17T21:15:13.521Z,4.90
2018-02-17T21:17:41.247Z,5.00
2018-02-17T21:20:09.664Z,5.00
2018-02-17T21:22:37.362Z,4.90
2018-02-17T21:25:05.753Z,5.00
2018-02-17T21:27:33.436Z,4.90
2018-02-17T21:30:01.102Z,4.90
2018-02-17T21:32:28.736Z,5.00
2018-02-17T21:34:56.354Z,5.00
2018-02-17T21:37:24.003Z,5.00
2018-02-17T21:39:51.894Z,5.00
2018-02-17T21:42:19.533Z,5.00
2018-02-17T21:44:47.132Z,5.00
2018-02-17T21:47:14.761Z,4.90
2018-02-17T21:49:45.576Z,5.00
2018-02-17T21:52:13.988Z,5.00
2018-02-17T21:54:41.591Z,5.00
2018-02-17T21:57:15.476Z,5.00
2018-02-17T21:59:43.113Z,4.90
2018-02-17T22:02:10.728Z,5.00
2018-02-17T22:04:38.362Z,5.00
2018-02-17T22:07:05.968Z,5.00
2018-02-17T22:09:34.364Z,5.00
2018-02-17T22:12:01.965Z,5.00
2018-02-17T22:14:30.447Z,5.10
2018-02-17T22:16:58.072Z,5.00
2018-02-17T22:19:25.677Z,5.00
2018-02-17T22:21:53.505Z,5.00
2018-02-17T22:24:21.162Z,5.10
2018-02-17T22:26:49.617Z,5.00
2018-02-17T22:29:17.333Z,5.00
2018-02-17T22:31:44.957Z,5.00
2018-02-17T22:34:12.646Z,5.00
2018-02-17T22:36:41.008Z,5.00
2018-02-17T22:39:09.559Z,5.00
2018-02-17T22:41:37.164Z,5.00
2018-02-17T22:44:04.848Z,5.00
2018-02-17T22:46:32.453Z,5.00
2018-02-17T22:49:00.145Z,5.00
2018-02-17T22:51:27.772Z,5.00
2018-02-17T22:53:55.364Z,5.00
2018-02-17T22:56:23.812Z,5.00
2018-02-17T22:58:52.193Z,4.90
2018-02-17T23:01:20.608Z,4.90
2018-02-17T23:03:48.252Z,4.90
2018-02-17T23:06:15.857Z,5.00
2018-02-17T23:08:44.964Z,5.00
2018-02-17T23:11:12.651Z,4.90
2018-02-17T23:13:40.509Z,4.90
2018-02-17T23:16:08.117Z,4.90
2018-02-17T23:18:35.720Z,4.90
2018-02-17T23:21:04.264Z,4.90
2018-02-17T23:23:31.875Z,4.90
2018-02-17T23:25:59.535Z,4.90
2018-02-17T23:28:27.146Z,4.90
2018-02-17T23:30:54.829Z,4.90
2018-02-17T23:33:23.043Z,4.90
2018-02-17T23:35:52.217Z,4.90
2018-02-17T23:38:19.852Z,4.80
2018-02-17T23:40:48.233Z,4.90
2018-02-17T23:43:16.620Z,4.90
2018-02-17T23:45:47.545Z,4.80
2018-02-17T23:48:15.187Z,4.80
2018-02-17T23:50:42.788Z,4.80
2018-02-17T23:53:10.384Z,4.90
2018-02-17T23:55:38.014Z,4.90
2018-02-17T23:58:06.387Z,4.90
